sensor_id;sensor_type;location;lat;lon;timestamp;pressure;altitude;pressure_sealevel;temperature;humidity
79236;BME280;68958;47.460;18.812;2023-04-01T00:00:00;98848.75;;;21.53;50.93
79236;BME280;68958;47.460;18.812;2023-04-01T00:01:02;98854.13;;;21.53;50.66
79236;BME280;68958;47.460;18.812;2023-04-01T00:02:04;98855.16;;;21.52;50.86
79236;BME280;68958;47.460;18.812;2023-04-01T00:03:06;98856.13;;;21.51;50.67
79236;BME280;68958;47.460;18.812;2023-04-01T00:04:08;98860.66;;;21.50;50.99
79236;BME280;68958;47.460;18.812;2023-04-01T00:05:10;98854.31;;;21.51;51.18
79236;BME280;68958;47.460;18.812;2023-04-01T00:06:13;98858.81;;;21.51;50.50
79236;BME280;68958;47.460;18.812;2023-04-01T00:07:15;98859.69;;;21.51;51.39
79236;BME280;68958;47.460;18.812;2023-04-01T00:08:17;98849.94;;;21.50;50.92
79236;BME280;68958;47.460;18.812;2023-04-01T00:09:19;98848.06;;;21.51;50.75
79236;BME280;68958;47.460;18.812;2023-04-01T00:10:20;98847.25;;;21.50;51.25
79236;BME280;68958;47.460;18.812;2023-04-01T00:11:23;98848.94;;;21.51;50.63
79236;BME280;68958;47.460;18.812;2023-04-01T00:12:24;98853.44;;;21.51;50.92
79236;BME280;68958;47.460;18.812;2023-04-01T00:13:26;98843.72;;;21.50;50.78
79236;BME280;68958;47.460;18.812;2023-04-01T00:14:27;98861.50;;;21.51;51.27
79236;BME280;68958;47.460;18.812;2023-04-01T00:15:30;98852.63;;;21.50;51.15
79236;BME280;68958;47.460;18.812;2023-04-01T00:16:32;98850.75;;;21.51;51.25
79236;BME280;68958;47.460;18.812;2023-04-01T00:17:34;98841.03;;;21.50;51.09
79236;BME280;68958;47.460;18.812;2023-04-01T00:18:36;98847.44;;;21.48;51.39
79236;BME280;68958;47.460;18.812;2023-04-01T00:19:37;98840.19;;;21.49;50.49
79236;BME280;68958;47.460;18.812;2023-04-01T00:20:38;98839.19;;;21.50;50.70
79236;BME280;68958;47.460;18.812;2023-04-01T00:21:40;98840.19;;;21.49;50.93
79236;BME280;68958;47.460;18.812;2023-04-01T00:22:42;98839.38;;;21.48;50.92
79236;BME280;68958;47.460;18.812;2023-04-01T00:23:43;98837.50;;;21.49;51.26
79236;BME280;68958;47.460;18.812;2023-04-01T00:24:45;98831.13;;;21.50;51.33
79236;BME280;68958;47.460;18.812;2023-04-01T00:25:47;98837.50;;;21.49;51.28
79236;BME280;68958;47.460;18.812;2023-04-01T00:26:49;98835.84;;;21.48;50.84
79236;BME280;68958;47.460;18.812;2023-04-01T00:27:50;98844.75;;;21.48;50.94
79236;BME280;68958;47.460;18.812;2023-04-01T00:28:52;98839.38;;;21.48;50.76
79236;BME280;68958;47.460;18.812;2023-04-01T00:29:53;98844.09;;;21.46;50.74
79236;BME280;68958;47.460;18.812;2023-04-01T00:30:55;98840.38;;;21.47;50.50
79236;BME280;68958;47.460;18.812;2023-04-01T00:31:57;98840.38;;;21.47;50.68
79236;BME280;68958;47.460;18.812;2023-04-01T00:32:58;98841.22;;;21.48;51.30
79236;BME280;68958;47.460;18.812;2023-04-01T00:34:00;98835.84;;;21.48;50.66
79236;BME280;68958;47.460;18.812;2023-04-01T00:35:01;98847.59;;;21.47;50.57
79236;BME280;68958;47.460;18.812;2023-04-01T00:36:15;98840.38;;;21.47;50.60
79236;BME280;68958;47.460;18.812;2023-04-01T00:37:17;98840.56;;;21.46;50.87
79236;BME280;68958;47.460;18.812;2023-04-01T00:38:18;98843.25;;;21.46;50.70
79236;BME280;68958;47.460;18.812;2023-04-01T00:39:20;98843.25;;;21.46;51.43
79236;BME280;68958;47.460;18.812;2023-04-01T00:41:31;98839.72;;;21.45;50.95
79236;BME280;68958;47.460;18.812;2023-04-01T00:42:32;98848.63;;;21.46;50.94
79236;BME280;68958;47.460;18.812;2023-04-01T00:43:34;98845.94;;;21.46;50.92
79236;BME280;68958;47.460;18.812;2023-04-01T00:44:37;98840.56;;;21.46;50.83
79236;BME280;68958;47.460;18.812;2023-04-01T00:45:41;98831.84;;;21.44;51.06
79236;BME280;68958;47.460;18.812;2023-04-01T00:46:43;98834.53;;;21.44;51.44
79236;BME280;68958;47.460;18.812;2023-04-01T00:47:44;98839.06;;;21.43;51.19
79236;BME280;68958;47.460;18.812;2023-04-01T00:48:51;98834.69;;;21.42;51.42
79236;BME280;68958;47.460;18.812;2023-04-01T00:49:54;98840.91;;;21.43;51.56
79236;BME280;68958;47.460;18.812;2023-04-01T00:52:08;98844.28;;;21.45;50.93
79236;BME280;68958;47.460;18.812;2023-04-01T00:53:12;98845.28;;;21.44;51.22
79236;BME280;68958;47.460;18.812;2023-04-01T00:54:16;98850.47;;;21.45;51.06
79236;BME280;68958;47.460;18.812;2023-04-01T00:55:21;98843.44;;;21.44;50.46
79236;BME280;68958;47.460;18.812;2023-04-01T00:56:31;98848.81;;;21.44;50.65
79236;BME280;68958;47.460;18.812;2023-04-01T00:57:36;98853.50;;;21.42;50.71
79236;BME280;68958;47.460;18.812;2023-04-01T00:58:42;98842.75;;;21.42;50.28
79236;BME280;68958;47.460;18.812;2023-04-01T00:59:48;98848.13;;;21.42;51.00
79236;BME280;68958;47.460;18.812;2023-04-01T01:00:51;98852.66;;;21.42;50.75
79236;BME280;68958;47.460;18.812;2023-04-01T01:01:53;98843.78;;;21.41;50.82
79236;BME280;68958;47.460;18.812;2023-04-01T01:02:55;98853.50;;;21.42;50.75
79236;BME280;68958;47.460;18.812;2023-04-01T01:03:56;98849.97;;;21.42;50.47
79236;BME280;68958;47.460;18.812;2023-04-01T01:04:58;98857.38;;;21.40;50.42
79236;BME280;68958;47.460;18.812;2023-04-01T01:08:56;98849.34;;;21.40;50.96
79236;BME280;68958;47.460;18.812;2023-04-01T01:10:21;98843.13;;;21.39;50.89
79236;BME280;68958;47.460;18.812;2023-04-01T01:11:41;98841.47;;;21.38;50.72
79236;BME280;68958;47.460;18.812;2023-04-01T01:14:48;98836.09;;;21.38;50.58
79236;BME280;68958;47.460;18.812;2023-04-01T01:16:01;98838.78;;;21.38;50.66
79236;BME280;68958;47.460;18.812;2023-04-01T01:17:22;98829.03;;;21.37;50.63
79236;BME280;68958;47.460;18.812;2023-04-01T01:18:31;98837.94;;;21.38;50.67
79236;BME280;68958;47.460;18.812;2023-04-01T01:22:21;98838.09;;;21.36;51.19
79236;BME280;68958;47.460;18.812;2023-04-01T01:25:07;98837.94;;;21.38;50.41
79236;BME280;68958;47.460;18.812;2023-04-01T01:27:28;98838.78;;;21.38;51.04
79236;BME280;68958;47.460;18.812;2023-04-01T01:30:25;98844.47;;;21.35;50.53
79236;BME280;68958;47.460;18.812;2023-04-01T01:31:37;98845.31;;;21.36;50.76
79236;BME280;68958;47.460;18.812;2023-04-01T01:33:08;98843.66;;;21.35;51.41
79236;BME280;68958;47.460;18.812;2023-04-01T01:34:40;98844.47;;;21.35;50.67
79236;BME280;68958;47.460;18.812;2023-04-01T01:35:57;98839.94;;;21.36;50.55
79236;BME280;68958;47.460;18.812;2023-04-01T01:37:05;98837.25;;;21.36;51.30
79236;BME280;68958;47.460;18.812;2023-04-01T01:38:15;98846.00;;;21.38;51.09
79236;BME280;68958;47.460;18.812;2023-04-01T01:39:27;98837.25;;;21.36;51.09
79236;BME280;68958;47.460;18.812;2023-04-01T01:40:33;98841.63;;;21.37;51.41
79236;BME280;68958;47.460;18.812;2023-04-01T01:41:39;98830.91;;;21.37;50.82
79236;BME280;68958;47.460;18.812;2023-04-01T01:42:52;98830.03;;;21.36;50.98
79236;BME280;68958;47.460;18.812;2023-04-01T01:43:56;98839.94;;;21.36;51.08
79236;BME280;68958;47.460;18.812;2023-04-01T01:44:59;98838.28;;;21.35;50.84
79236;BME280;68958;47.460;18.812;2023-04-01T01:46:07;98836.41;;;21.35;51.53
79236;BME280;68958;47.460;18.812;2023-04-01T01:47:13;98842.63;;;21.36;51.40
79236;BME280;68958;47.460;18.812;2023-04-01T01:48:17;98838.09;;;21.36;51.50
79236;BME280;68958;47.460;18.812;2023-04-01T01:49:19;98835.41;;;21.36;51.01
79236;BME280;68958;47.460;18.812;2023-04-01T01:50:23;98825.69;;;21.35;51.00
79236;BME280;68958;47.460;18.812;2023-04-01T01:51:27;98834.56;;;21.36;51.17
79236;BME280;68958;47.460;18.812;2023-04-01T01:52:29;98833.72;;;21.35;51.82
79236;BME280;68958;47.460;18.812;2023-04-01T01:53:31;98833.72;;;21.35;51.32
79236;BME280;68958;47.460;18.812;2023-04-01T01:54:33;98822.16;;;21.35;51.43
79236;BME280;68958;47.460;18.812;2023-04-01T01:55:37;98823.00;;;21.35;51.65
79236;BME280;68958;47.460;18.812;2023-04-01T01:56:41;98820.31;;;21.35;51.66
79236;BME280;68958;47.460;18.812;2023-04-01T01:57:44;98823.00;;;21.35;51.47
79236;BME280;68958;47.460;18.812;2023-04-01T01:58:59;98820.31;;;21.35;51.65
79236;BME280;68958;47.460;18.812;2023-04-01T02:00:08;98826.50;;;21.36;51.14
79236;BME280;68958;47.460;18.812;2023-04-01T02:01:24;98825.69;;;21.35;51.21
79236;BME280;68958;47.460;18.812;2023-04-01T02:02:31;98829.38;;;21.34;51.26
79236;BME280;68958;47.460;18.812;2023-04-01T02:03:36;98827.19;;;21.38;51.61
79236;BME280;68958;47.460;18.812;2023-04-01T02:04:41;98820.50;;;21.34;51.39
79236;BME280;68958;47.460;18.812;2023-04-01T02:05:44;98815.31;;;21.32;51.49
79236;BME280;68958;47.460;18.812;2023-04-01T02:06:56;98820.66;;;21.32;51.77
79236;BME280;68958;47.460;18.812;2023-04-01T02:08:07;98818.00;;;21.32;51.35
79236;BME280;68958;47.460;18.812;2023-04-01T02:10:13;98822.53;;;21.32;51.31
79236;BME280;68958;47.460;18.812;2023-04-01T02:11:17;98821.69;;;21.31;51.14
79236;BME280;68958;47.460;18.812;2023-04-01T02:12:25;98811.78;;;21.32;51.02
79236;BME280;68958;47.460;18.812;2023-04-01T02:13:37;98819.00;;;21.31;51.22
79236;BME280;68958;47.460;18.812;2023-04-01T02:16:00;98817.16;;;21.32;50.82
79236;BME280;68958;47.460;18.812;2023-04-01T02:17:10;98808.25;;;21.31;51.50
79236;BME280;68958;47.460;18.812;2023-04-01T02:19:17;98818.00;;;21.32;50.94
79236;BME280;68958;47.460;18.812;2023-04-01T02:22:39;98812.94;;;21.29;51.21
79236;BME280;68958;47.460;18.812;2023-04-01T02:23:44;98798.69;;;21.29;51.17
79236;BME280;68958;47.460;18.812;2023-04-01T02:24:50;98810.25;;;21.29;51.56
79236;BME280;68958;47.460;18.812;2023-04-01T02:25:55;98801.38;;;21.29;51.43
79236;BME280;68958;47.460;18.812;2023-04-01T02:26:57;98802.22;;;21.29;51.40
79236;BME280;68958;47.460;18.812;2023-04-01T02:28:00;98798.69;;;21.29;51.13
79236;BME280;68958;47.460;18.812;2023-04-01T02:29:03;98803.22;;;21.28;51.36
79236;BME280;68958;47.460;18.812;2023-04-01T02:30:07;98800.53;;;21.28;51.33
79236;BME280;68958;47.460;18.812;2023-04-01T02:31:10;98796.34;;;21.26;51.58
79236;BME280;68958;47.460;18.812;2023-04-01T02:32:14;98807.91;;;21.26;51.37
79236;BME280;68958;47.460;18.812;2023-04-01T02:33:17;98797.19;;;21.26;51.22
79236;BME280;68958;47.460;18.812;2023-04-01T02:34:21;98794.50;;;21.26;51.36
79236;BME280;68958;47.460;18.812;2023-04-01T02:35:25;98795.50;;;21.25;51.31
79236;BME280;68958;47.460;18.812;2023-04-01T02:36:26;98796.34;;;21.26;51.58
79236;BME280;68958;47.460;18.812;2023-04-01T02:37:28;98791.81;;;21.26;51.57
79236;BME280;68958;47.460;18.812;2023-04-01T02:38:29;98792.63;;;21.27;51.45
79236;BME280;68958;47.460;18.812;2023-04-01T02:39:31;98795.31;;;21.27;51.22
79236;BME280;68958;47.460;18.812;2023-04-01T02:40:48;98793.47;;;21.27;51.64
79236;BME280;68958;47.460;18.812;2023-04-01T02:41:49;98794.50;;;21.26;51.09
79236;BME280;68958;47.460;18.812;2023-04-01T02:42:51;98791.81;;;21.26;51.77
79236;BME280;68958;47.460;18.812;2023-04-01T02:43:53;98789.13;;;21.26;51.28
79236;BME280;68958;47.460;18.812;2023-04-01T02:44:54;98799.03;;;21.26;51.23
79236;BME280;68958;47.460;18.812;2023-04-01T02:45:55;98794.50;;;21.26;51.02
79236;BME280;68958;47.460;18.812;2023-04-01T02:46:57;98793.84;;;21.24;51.47
79236;BME280;68958;47.460;18.812;2023-04-01T02:47:58;98800.88;;;21.25;51.21
79236;BME280;68958;47.460;18.812;2023-04-01T02:49:00;98798.19;;;21.25;51.54
79236;BME280;68958;47.460;18.812;2023-04-01T02:50:02;98796.34;;;21.26;51.80
79236;BME280;68958;47.460;18.812;2023-04-01T02:51:05;98808.09;;;21.25;51.32
79236;BME280;68958;47.460;18.812;2023-04-01T02:52:06;98796.34;;;21.26;52.17
79236;BME280;68958;47.460;18.812;2023-04-01T02:53:08;98802.53;;;21.26;51.30
79236;BME280;68958;47.460;18.812;2023-04-01T02:54:09;98792.63;;;21.27;50.98
79236;BME280;68958;47.460;18.812;2023-04-01T02:55:11;98793.66;;;21.26;51.63
79236;BME280;68958;47.460;18.812;2023-04-01T02:56:13;98791.81;;;21.26;50.98
79236;BME280;68958;47.460;18.812;2023-04-01T02:57:14;98802.72;;;21.25;51.77
79236;BME280;68958;47.460;18.812;2023-04-01T02:58:16;98798.38;;;21.24;51.47
79236;BME280;68958;47.460;18.812;2023-04-01T02:59:18;98799.22;;;21.24;51.55
79236;BME280;68958;47.460;18.812;2023-04-01T03:00:19;98801.91;;;21.24;51.70
79236;BME280;68958;47.460;18.812;2023-04-01T03:01:21;98797.53;;;21.23;51.43
79236;BME280;68958;47.460;18.812;2023-04-01T03:02:23;98798.53;;;21.22;51.81
79236;BME280;68958;47.460;18.812;2023-04-01T03:03:25;98799.53;;;21.21;50.87
79236;BME280;68958;47.460;18.812;2023-04-01T03:04:26;98798.53;;;21.22;51.17
79236;BME280;68958;47.460;18.812;2023-04-01T03:05:28;98801.41;;;21.20;51.31
79236;BME280;68958;47.460;18.812;2023-04-01T03:06:29;98800.38;;;21.21;51.69
79236;BME280;68958;47.460;18.812;2023-04-01T03:07:31;98793.16;;;21.22;51.43
79236;BME280;68958;47.460;18.812;2023-04-01T03:08:33;98794.19;;;21.21;51.64
79236;BME280;68958;47.460;18.812;2023-04-01T03:09:34;98792.50;;;21.20;51.46
79236;BME280;68958;47.460;18.812;2023-04-01T03:10:35;98790.84;;;21.19;51.62
79236;BME280;68958;47.460;18.812;2023-04-01T03:11:38;98794.53;;;21.18;51.21
79236;BME280;68958;47.460;18.812;2023-04-01T03:12:40;98792.88;;;21.17;51.75
79236;BME280;68958;47.460;18.812;2023-04-01T03:13:41;98798.25;;;21.17;51.03
79236;BME280;68958;47.460;18.812;2023-04-01T03:14:43;98793.72;;;21.17;51.35
79236;BME280;68958;47.460;18.812;2023-04-01T03:15:45;98811.66;;;21.17;51.57
79236;BME280;68958;47.460;18.812;2023-04-01T03:16:46;98808.16;;;21.16;51.30
79236;BME280;68958;47.460;18.812;2023-04-01T03:17:47;98811.03;;;21.15;51.69
79236;BME280;68958;47.460;18.812;2023-04-01T03:18:49;98817.22;;;21.15;51.75
79236;BME280;68958;47.460;18.812;2023-04-01T03:19:52;98809.16;;;21.15;51.44
79236;BME280;68958;47.460;18.812;2023-04-01T03:20:54;98817.22;;;21.15;51.57
79236;BME280;68958;47.460;18.812;2023-04-01T03:21:55;98820.75;;;21.16;51.73
79236;BME280;68958;47.460;18.812;2023-04-01T03:22:57;98822.59;;;21.15;51.21
79236;BME280;68958;47.460;18.812;2023-04-01T03:23:58;98816.53;;;21.13;51.20
79236;BME280;68958;47.460;18.812;2023-04-01T03:25:00;98812.84;;;21.14;51.47
79236;BME280;68958;47.460;18.812;2023-04-01T03:26:01;98814.69;;;21.14;51.85
79236;BME280;68958;47.460;18.812;2023-04-01T03:27:03;98813.72;;;21.15;51.16
79236;BME280;68958;47.460;18.812;2023-04-01T03:28:04;98824.44;;;21.15;51.60
79236;BME280;68958;47.460;18.812;2023-04-01T03:29:06;98814.69;;;21.14;51.83
79236;BME280;68958;47.460;18.812;2023-04-01T03:30:08;98821.09;;;21.13;51.46
79236;BME280;68958;47.460;18.812;2023-04-01T03:31:18;98807.66;;;21.13;51.80
79236;BME280;68958;47.460;18.812;2023-04-01T03:32:25;98813.03;;;21.13;51.89
79236;BME280;68958;47.460;18.812;2023-04-01T03:33:28;98820.25;;;21.12;51.92
79236;BME280;68958;47.460;18.812;2023-04-01T03:34:30;98817.56;;;21.12;52.00
79236;BME280;68958;47.460;18.812;2023-04-01T03:35:32;98820.06;;;21.14;51.34
79236;BME280;68958;47.460;18.812;2023-04-01T03:36:33;98817.56;;;21.12;51.58
79236;BME280;68958;47.460;18.812;2023-04-01T03:37:35;98822.09;;;21.12;51.69
79236;BME280;68958;47.460;18.812;2023-04-01T03:38:36;98824.59;;;21.13;51.64
79236;BME280;68958;47.460;18.812;2023-04-01T03:39:37;98821.91;;;21.13;51.64
79236;BME280;68958;47.460;18.812;2023-04-01T03:40:42;98827.47;;;21.12;51.62
79236;BME280;68958;47.460;18.812;2023-04-01T03:41:44;98821.09;;;21.13;51.90
79236;BME280;68958;47.460;18.812;2023-04-01T03:42:46;98828.31;;;21.12;51.56
79236;BME280;68958;47.460;18.812;2023-04-01T03:43:47;98827.28;;;21.13;51.72
79236;BME280;68958;47.460;18.812;2023-04-01T03:44:49;98834.50;;;21.13;51.49
79236;BME280;68958;47.460;18.812;2023-04-01T03:45:51;98828.13;;;21.14;51.61
79236;BME280;68958;47.460;18.812;2023-04-01T03:46:53;98831.00;;;21.12;51.53
79236;BME280;68958;47.460;18.812;2023-04-01T03:47:54;98835.53;;;21.12;51.81
79236;BME280;68958;47.460;18.812;2023-04-01T03:48:56;98833.69;;;21.12;51.61
79236;BME280;68958;47.460;18.812;2023-04-01T03:49:57;98827.47;;;21.12;51.72
79236;BME280;68958;47.460;18.812;2023-04-01T03:51:00;98835.72;;;21.10;51.94
79236;BME280;68958;47.460;18.812;2023-04-01T03:52:02;98837.38;;;21.11;51.96
79236;BME280;68958;47.460;18.812;2023-04-01T03:53:03;98832.84;;;21.12;51.33
79236;BME280;68958;47.460;18.812;2023-04-01T03:54:05;98831.16;;;21.11;51.25
79236;BME280;68958;47.460;18.812;2023-04-01T03:55:07;98832.00;;;21.11;51.67
79236;BME280;68958;47.460;18.812;2023-04-01T03:56:08;98833.84;;;21.11;51.42
79236;BME280;68958;47.460;18.812;2023-04-01T03:57:11;98834.69;;;21.11;51.57
79236;BME280;68958;47.460;18.812;2023-04-01T03:58:13;98847.28;;;21.11;51.39
79236;BME280;68958;47.460;18.812;2023-04-01T03:59:16;98841.06;;;21.10;51.71
79236;BME280;68958;47.460;18.812;2023-04-01T04:00:17;98852.66;;;21.11;51.40
79236;BME280;68958;47.460;18.812;2023-04-01T04:01:22;98844.59;;;21.11;51.76
79236;BME280;68958;47.460;18.812;2023-04-01T04:02:27;98846.63;;;21.09;51.74
79236;BME280;68958;47.460;18.812;2023-04-01T04:03:28;98841.06;;;21.10;51.54
79236;BME280;68958;47.460;18.812;2023-04-01T04:04:31;98841.06;;;21.10;51.45
79236;BME280;68958;47.460;18.812;2023-04-01T04:05:33;98839.59;;;21.08;51.80
79236;BME280;68958;47.460;18.812;2023-04-01T04:06:35;98843.94;;;21.09;51.18
79236;BME280;68958;47.460;18.812;2023-04-01T04:07:36;98843.94;;;21.09;51.29
79236;BME280;68958;47.460;18.812;2023-04-01T04:08:41;98840.44;;;21.08;51.33
79236;BME280;68958;47.460;18.812;2023-04-01T04:09:42;98843.94;;;21.09;51.85
79236;BME280;68958;47.460;18.812;2023-04-01T04:10:44;98842.28;;;21.08;51.91
79236;BME280;68958;47.460;18.812;2023-04-01T04:11:48;98842.28;;;21.08;51.65
79236;BME280;68958;47.460;18.812;2023-04-01T04:12:49;98838.56;;;21.09;51.52
79236;BME280;68958;47.460;18.812;2023-04-01T04:13:53;98838.72;;;21.07;51.66
79236;BME280;68958;47.460;18.812;2023-04-01T04:14:55;98832.53;;;21.07;51.32
79236;BME280;68958;47.460;18.812;2023-04-01T04:15:56;98838.91;;;21.06;51.73
79236;BME280;68958;47.460;18.812;2023-04-01T04:16:58;98835.38;;;21.05;51.52
79236;BME280;68958;47.460;18.812;2023-04-01T04:17:59;98845.13;;;21.06;51.66
79236;BME280;68958;47.460;18.812;2023-04-01T04:19:01;98845.94;;;21.07;51.46
79236;BME280;68958;47.460;18.812;2023-04-01T04:20:02;98848.63;;;21.07;52.02
79236;BME280;68958;47.460;18.812;2023-04-01T04:21:05;98839.75;;;21.06;51.83
79236;BME280;68958;47.460;18.812;2023-04-01T04:22:07;98851.31;;;21.07;51.53
79236;BME280;68958;47.460;18.812;2023-04-01T04:23:08;98844.28;;;21.06;51.72
79236;BME280;68958;47.460;18.812;2023-04-01T04:24:10;98844.28;;;21.06;51.41
79236;BME280;68958;47.460;18.812;2023-04-01T04:25:31;98845.13;;;21.06;51.18
79236;BME280;68958;47.460;18.812;2023-04-01T04:26:32;98844.28;;;21.06;51.60
79236;BME280;68958;47.460;18.812;2023-04-01T04:27:35;98845.13;;;21.06;51.39
79236;BME280;68958;47.460;18.812;2023-04-01T04:28:42;98843.44;;;21.05;51.90
79236;BME280;68958;47.460;18.812;2023-04-01T04:29:44;98847.97;;;21.05;51.94
79236;BME280;68958;47.460;18.812;2023-04-01T04:30:45;98848.81;;;21.05;51.86
79236;BME280;68958;47.460;18.812;2023-04-01T04:31:46;98841.78;;;21.04;51.70
79236;BME280;68958;47.460;18.812;2023-04-01T04:32:48;98840.94;;;21.04;51.88
79236;BME280;68958;47.460;18.812;2023-04-01T04:33:49;98841.78;;;21.04;51.54
79236;BME280;68958;47.460;18.812;2023-04-01T04:34:52;98836.41;;;21.04;51.51
79236;BME280;68958;47.460;18.812;2023-04-01T04:35:56;98843.44;;;21.05;51.57
79236;BME280;68958;47.460;18.812;2023-04-01T04:36:58;98842.59;;;21.05;51.54
79236;BME280;68958;47.460;18.812;2023-04-01T04:38:04;98831.88;;;21.05;51.46
79236;BME280;68958;47.460;18.812;2023-04-01T04:39:07;98843.63;;;21.04;51.67
79236;BME280;68958;47.460;18.812;2023-04-01T04:40:11;98840.94;;;21.04;51.47
79236;BME280;68958;47.460;18.812;2023-04-01T04:41:15;98841.78;;;21.04;51.87
79236;BME280;68958;47.460;18.812;2023-04-01T04:42:21;98839.91;;;21.05;51.90
79236;BME280;68958;47.460;18.812;2023-04-01T04:43:25;98845.28;;;21.05;51.52
79236;BME280;68958;47.460;18.812;2023-04-01T04:44:26;98840.28;;;21.02;51.55
79236;BME280;68958;47.460;18.812;2023-04-01T04:45:28;98832.22;;;21.02;51.32
79236;BME280;68958;47.460;18.812;2023-04-01T04:46:31;98838.63;;;21.01;51.76
79236;BME280;68958;47.460;18.812;2023-04-01T04:47:41;98840.28;;;21.02;51.75
79236;BME280;68958;47.460;18.812;2023-04-01T04:48:42;98837.59;;;21.02;51.55
79236;BME280;68958;47.460;18.812;2023-04-01T04:49:45;98842.97;;;21.02;51.83
79236;BME280;68958;47.460;18.812;2023-04-01T04:50:50;98849.81;;;21.04;51.50
79236;BME280;68958;47.460;18.812;2023-04-01T04:51:52;98849.81;;;21.04;51.49
79236;BME280;68958;47.460;18.812;2023-04-01T04:52:57;98847.16;;;21.04;51.92
79236;BME280;68958;47.460;18.812;2023-04-01T04:53:58;98844.63;;;21.03;51.98
79236;BME280;68958;47.460;18.812;2023-04-01T04:55:13;98849.00;;;21.04;51.67
79236;BME280;68958;47.460;18.812;2023-04-01T04:56:19;98848.81;;;21.05;51.86
79236;BME280;68958;47.460;18.812;2023-04-01T04:57:28;98848.16;;;21.03;51.73
79236;BME280;68958;47.460;18.812;2023-04-01T04:58:30;98842.13;;;21.01;51.21
79236;BME280;68958;47.460;18.812;2023-04-01T04:59:32;98845.66;;;21.02;51.42
79236;BME280;68958;47.460;18.812;2023-04-01T05:00:40;98845.47;;;21.03;51.12
79236;BME280;68958;47.460;18.812;2023-04-01T05:01:45;98850.00;;;21.03;51.70
79236;BME280;68958;47.460;18.812;2023-04-01T05:02:46;98838.78;;;20.99;51.49
79236;BME280;68958;47.460;18.812;2023-04-01T05:03:48;98855.38;;;21.03;51.40
79236;BME280;68958;47.460;18.812;2023-04-01T05:04:49;98846.50;;;21.02;51.58
79236;BME280;68958;47.460;18.812;2023-04-01T05:05:52;98847.50;;;21.01;51.50
79236;BME280;68958;47.460;18.812;2023-04-01T05:06:55;98851.03;;;21.02;51.53
79236;BME280;68958;47.460;18.812;2023-04-01T05:07:56;98841.31;;;21.01;51.22
79236;BME280;68958;47.460;18.812;2023-04-01T05:08:58;98837.94;;;20.99;51.20
79236;BME280;68958;47.460;18.812;2023-04-01T05:09:59;98850.19;;;21.01;51.16
79236;BME280;68958;47.460;18.812;2023-04-01T05:11:02;98848.34;;;21.02;51.71
79236;BME280;68958;47.460;18.812;2023-04-01T05:12:05;98845.81;;;21.00;51.22
79236;BME280;68958;47.460;18.812;2023-04-01T05:13:30;98844.31;;;20.98;51.77
79236;BME280;68958;47.460;18.812;2023-04-01T05:14:34;98839.44;;;21.01;51.36
79236;BME280;68958;47.460;18.812;2023-04-01T05:15:42;98846.50;;;21.02;51.38
79236;BME280;68958;47.460;18.812;2023-04-01T05:16:45;98844.13;;;20.99;51.36
79236;BME280;68958;47.460;18.812;2023-04-01T05:17:46;98849.34;;;21.01;51.25
79236;BME280;68958;47.460;18.812;2023-04-01T05:18:48;98848.34;;;21.02;51.40
79236;BME280;68958;47.460;18.812;2023-04-01T05:19:50;98854.88;;;20.99;52.23
79236;BME280;68958;47.460;18.812;2023-04-01T05:20:53;98844.97;;;21.00;52.11
79236;BME280;68958;47.460;18.812;2023-04-01T05:21:55;98850.69;;;20.97;52.58
79236;BME280;68958;47.460;18.812;2023-04-01T05:22:57;98858.41;;;21.00;52.76
79236;BME280;68958;47.460;18.812;2023-04-01T05:23:59;98861.44;;;20.97;53.15
79236;BME280;68958;47.460;18.812;2023-04-01T05:25:01;98842.47;;;20.98;53.31
79236;BME280;68958;47.460;18.812;2023-04-01T05:26:05;98858.06;;;21.03;53.67
79236;BME280;68958;47.460;18.812;2023-04-01T05:27:07;98856.41;;;21.02;53.98
79236;BME280;68958;47.460;18.812;2023-04-01T05:28:12;98856.22;;;21.03;53.29
79236;BME280;68958;47.460;18.812;2023-04-01T05:29:14;98853.72;;;21.02;53.92
79236;BME280;68958;47.460;18.812;2023-04-01T05:30:16;98858.06;;;21.03;53.23
79236;BME280;68958;47.460;18.812;2023-04-01T05:31:31;98856.22;;;21.03;53.28
79236;BME280;68958;47.460;18.812;2023-04-01T05:32:33;98851.84;;;21.02;53.18
79236;BME280;68958;47.460;18.812;2023-04-01T05:33:35;98856.41;;;21.02;53.26
79236;BME280;68958;47.460;18.812;2023-04-01T05:34:37;98866.28;;;21.01;53.07
79236;BME280;68958;47.460;18.812;2023-04-01T05:35:40;98857.22;;;21.02;53.35
79236;BME280;68958;47.460;18.812;2023-04-01T05:36:42;98859.72;;;21.04;53.64
79236;BME280;68958;47.460;18.812;2023-04-01T05:37:44;98852.69;;;21.03;53.21
79236;BME280;68958;47.460;18.812;2023-04-01T05:38:46;98859.09;;;21.02;53.95
79236;BME280;68958;47.460;18.812;2023-04-01T05:39:48;98858.91;;;21.03;53.94
79236;BME280;68958;47.460;18.812;2023-04-01T05:40:49;98859.91;;;21.02;54.13
79236;BME280;68958;47.460;18.812;2023-04-01T05:41:51;98857.88;;;21.04;53.92
79236;BME280;68958;47.460;18.812;2023-04-01T05:42:52;98870.47;;;21.04;53.67
79236;BME280;68958;47.460;18.812;2023-04-01T05:43:54;98867.97;;;21.02;53.79
79236;BME280;68958;47.460;18.812;2023-04-01T05:45:25;98860.75;;;21.03;53.46
79236;BME280;68958;47.460;18.812;2023-04-01T05:46:55;98862.41;;;21.04;53.66
79236;BME280;68958;47.460;18.812;2023-04-01T05:48:00;98862.41;;;21.04;53.33
79236;BME280;68958;47.460;18.812;2023-04-01T05:49:05;98871.47;;;21.03;53.15
79236;BME280;68958;47.460;18.812;2023-04-01T05:50:06;98860.75;;;21.03;52.77
79236;BME280;68958;47.460;18.812;2023-04-01T05:51:13;98869.63;;;21.03;53.38
79236;BME280;68958;47.460;18.812;2023-04-01T05:52:15;98863.44;;;21.03;53.40
79236;BME280;68958;47.460;18.812;2023-04-01T05:53:17;98867.13;;;21.02;53.28
79236;BME280;68958;47.460;18.812;2023-04-01T05:54:19;98857.06;;;21.04;52.99